sensor_id;sensor_type;location;lat;lon;timestamp;pressure;altitude;pressure_sealevel;temperature;humidity
13581;BME280;6861;46.170;7.222;2023-03-18T00:01:08;95766.41;;;12.11;43.89
13581;BME280;6861;46.170;7.222;2023-03-18T00:03:37;95758.31;;;12.07;43.87
13581;BME280;6861;46.170;7.222;2023-03-18T00:06:07;95760.16;;;12.07;44.00
13581;BME280;6861;46.170;7.222;2023-03-18T00:08:36;95758.59;;;12.06;44.38
13581;BME280;6861;46.170;7.222;2023-03-18T00:11:05;95771.44;;;12.07;44.16
13581;BME280;6861;46.170;7.222;2023-03-18T00:13:33;95761.72;;;12.08;44.22
13581;BME280;6861;46.170;7.222;2023-03-18T00:16:04;95766.53;;;12.01;44.28
13581;BME280;6861;46.170;7.222;2023-03-18T00:18:33;95773.44;;;11.92;44.29
13581;BME280;6861;46.170;7.222;2023-03-18T00:21:01;95765.16;;;11.79;45.01
13581;BME280;6861;46.170;7.222;2023-03-18T00:23:30;95765.22;;;11.69;44.83
13581;BME280;6861;46.170;7.222;2023-03-18T00:26:00;95774.91;;;11.69;44.69
13581;BME280;6861;46.170;7.222;2023-03-18T00:28:28;95772.25;;;11.74;44.26
13581;BME280;6861;46.170;7.222;2023-03-18T00:31:03;95770.13;;;11.76;44.84
13581;BME280;6861;46.170;7.222;2023-03-18T00:33:35;95779.31;;;11.78;44.72
13581;BME280;6861;46.170;7.222;2023-03-18T00:36:04;95776.16;;;11.76;44.30
13581;BME280;6861;46.170;7.222;2023-03-18T00:38:32;95775.66;;;11.74;44.21
13581;BME280;6861;46.170;7.222;2023-03-18T00:41:01;95773.03;;;11.74;44.62
13581;BME280;6861;46.170;7.222;2023-03-18T00:43:38;95779.06;;;11.75;44.47
13581;BME280;6861;46.170;7.222;2023-03-18T00:46:14;95775.16;;;11.72;44.28
13581;BME280;6861;46.170;7.222;2023-03-18T00:48:43;95772.56;;;11.67;44.64
13581;BME280;6861;46.170;7.222;2023-03-18T00:51:13;95774.91;;;11.69;44.66
13581;BME280;6861;46.170;7.222;2023-03-18T00:53:44;95778.28;;;11.74;44.25
13581;BME280;6861;46.170;7.222;2023-03-18T00:56:14;95782.47;;;11.75;44.54
13581;BME280;6861;46.170;7.222;2023-03-18T00:58:42;95778.81;;;11.71;44.26
13581;BME280;6861;46.170;7.222;2023-03-18T01:01:11;95775.78;;;11.59;45.18
13581;BME280;6861;46.170;7.222;2023-03-18T01:03:41;95784.22;;;11.51;45.40
13581;BME280;6861;46.170;7.222;2023-03-18T01:06:10;95780.84;;;11.50;45.79
13581;BME280;6861;46.170;7.222;2023-03-18T01:08:39;95772.72;;;11.47;45.92
13581;BME280;6861;46.170;7.222;2023-03-18T01:11:09;95778.00;;;11.42;46.06
13581;BME280;6861;46.170;7.222;2023-03-18T01:13:37;95775.44;;;11.37;46.39
13581;BME280;6861;46.170;7.222;2023-03-18T01:16:07;95773.34;;;11.34;46.33
13581;BME280;6861;46.170;7.222;2023-03-18T01:18:36;95773.91;;;11.31;46.35
13581;BME280;6861;46.170;7.222;2023-03-18T01:21:06;95767.72;;;11.22;46.13
13581;BME280;6861;46.170;7.222;2023-03-18T01:23:35;95765.72;;;11.08;46.69
13581;BME280;6861;46.170;7.222;2023-03-18T01:26:03;95760.00;;;11.01;46.33
13581;BME280;6861;46.170;7.222;2023-03-18T01:28:32;95764.72;;;10.99;46.85
13581;BME280;6861;46.170;7.222;2023-03-18T01:31:00;95755.31;;;10.98;46.41
13581;BME280;6861;46.170;7.222;2023-03-18T01:33:28;95753.97;;;11.01;46.27
13581;BME280;6861;46.170;7.222;2023-03-18T01:35:58;95747.97;;;11.00;46.32
13581;BME280;6861;46.170;7.222;2023-03-18T01:38:29;95753.97;;;11.01;46.58
13581;BME280;6861;46.170;7.222;2023-03-18T01:40:58;95753.97;;;11.01;46.24
13581;BME280;6861;46.170;7.222;2023-03-18T01:43:29;95752.16;;;10.96;46.41
13581;BME280;6861;46.170;7.222;2023-03-18T01:45:59;95743.81;;;10.94;46.38
13581;BME280;6861;46.170;7.222;2023-03-18T01:48:29;95745.13;;;10.92;46.43
13581;BME280;6861;46.170;7.222;2023-03-18T01:51:03;95741.69;;;10.96;46.24
13581;BME280;6861;46.170;7.222;2023-03-18T01:53:40;95746.41;;;10.99;46.30
13581;BME280;6861;46.170;7.222;2023-03-18T01:56:10;95735.41;;;10.97;46.46
13581;BME280;6861;46.170;7.222;2023-03-18T01:58:41;95728.63;;;10.91;46.05
13581;BME280;6861;46.170;7.222;2023-03-18T02:01:13;95733.63;;;10.88;46.34
13581;BME280;6861;46.170;7.222;2023-03-18T02:03:44;95737.53;;;10.90;46.60
13581;BME280;6861;46.170;7.222;2023-03-18T02:06:13;95737.00;;;10.93;46.43
13581;BME280;6861;46.170;7.222;2023-03-18T02:08:43;95731.22;;;10.96;46.46
13581;BME280;6861;46.170;7.222;2023-03-18T02:11:11;95738.53;;;10.99;46.35
13581;BME280;6861;46.170;7.222;2023-03-18T02:13:41;95731.19;;;11.01;46.18
13581;BME280;6861;46.170;7.222;2023-03-18T02:16:14;95729.09;;;11.03;46.06
13581;BME280;6861;46.170;7.222;2023-03-18T02:18:47;95728.56;;;11.01;45.92
13581;BME280;6861;46.170;7.222;2023-03-18T02:21:25;95729.91;;;10.99;46.35
13581;BME280;6861;46.170;7.222;2023-03-18T02:24:01;95725.44;;;10.99;46.10
13581;BME280;6861;46.170;7.222;2023-03-18T02:26:38;95727.00;;;11.00;46.30
13581;BME280;6861;46.170;7.222;2023-03-18T02:29:11;95727.03;;;10.95;46.29
13581;BME280;6861;46.170;7.222;2023-03-18T02:31:41;95726.28;;;10.90;46.54
13581;BME280;6861;46.170;7.222;2023-03-18T02:34:10;95722.41;;;10.82;46.40
13581;BME280;6861;46.170;7.222;2023-03-18T02:36:38;95717.22;;;10.77;46.76
13581;BME280;6861;46.170;7.222;2023-03-18T02:39:07;95713.84;;;10.71;46.93
13581;BME280;6861;46.170;7.222;2023-03-18T02:41:38;95713.38;;;10.64;46.99
13581;BME280;6861;46.170;7.222;2023-03-18T02:44:08;95718.59;;;10.64;47.07
13581;BME280;6861;46.170;7.222;2023-03-18T02:46:46;95720.66;;;10.67;47.05
13581;BME280;6861;46.170;7.222;2023-03-18T02:49:17;95720.41;;;10.69;46.90
13581;BME280;6861;46.170;7.222;2023-03-18T02:51:45;95723.81;;;10.64;46.90
13581;BME280;6861;46.170;7.222;2023-03-18T02:54:18;95721.00;;;10.56;47.14
13581;BME280;6861;46.170;7.222;2023-03-18T02:56:46;95717.91;;;10.48;47.49
13581;BME280;6861;46.170;7.222;2023-03-18T02:59:15;95722.59;;;10.46;47.19
13581;BME280;6861;46.170;7.222;2023-03-18T03:01:46;95715.81;;;10.45;47.57
13581;BME280;6861;46.170;7.222;2023-03-18T03:04:15;95717.91;;;10.43;47.39
13581;BME280;6861;46.170;7.222;2023-03-18T03:06:43;95722.16;;;10.39;47.23
13581;BME280;6861;46.170;7.222;2023-03-18T03:09:14;95726.59;;;10.39;47.40
13581;BME280;6861;46.170;7.222;2023-03-18T03:11:43;95728.91;;;10.40;47.38
13581;BME280;6861;46.170;7.222;2023-03-18T03:14:12;95726.81;;;10.42;47.47
13581;BME280;6861;46.170;7.222;2023-03-18T03:16:40;95732.03;;;10.42;47.23
13581;BME280;6861;46.170;7.222;2023-03-18T03:19:10;95732.03;;;10.42;47.35
13581;BME280;6861;46.170;7.222;2023-03-18T03:21:39;95732.56;;;10.44;46.96
13581;BME280;6861;46.170;7.222;2023-03-18T03:24:08;95735.69;;;10.46;47.17
13581;BME280;6861;46.170;7.222;2023-03-18T03:26:36;95738.31;;;10.46;47.21
13581;BME280;6861;46.170;7.222;2023-03-18T03:29:05;95736.75;;;10.45;47.30
13581;BME280;6861;46.170;7.222;2023-03-18T03:31:33;95733.59;;;10.43;47.45
13581;BME280;6861;46.170;7.222;2023-03-18T03:34:02;95734.72;;;10.37;47.56
13581;BME280;6861;46.170;7.222;2023-03-18T03:36:32;95744.69;;;10.30;47.80
13581;BME280;6861;46.170;7.222;2023-03-18T03:39:00;95756.75;;;10.21;48.21
13581;BME280;6861;46.170;7.222;2023-03-18T03:41:28;95758.84;;;10.09;48.30
13581;BME280;6861;46.170;7.222;2023-03-18T03:43:56;95755.72;;;9.97;48.39
13581;BME280;6861;46.170;7.222;2023-03-18T03:46:25;95752.09;;;9.88;48.80
13581;BME280;6861;46.170;7.222;2023-03-18T03:48:53;95754.19;;;9.85;49.02
13581;BME280;6861;46.170;7.222;2023-03-18T03:51:21;95752.09;;;9.88;48.42
13581;BME280;6861;46.170;7.222;2023-03-18T03:53:50;95752.34;;;9.91;48.17
13581;BME280;6861;46.170;7.222;2023-03-18T03:56:19;95759.38;;;9.96;48.31
13581;BME280;6861;46.170;7.222;2023-03-18T03:58:47;95754.94;;;9.96;48.23
13581;BME280;6861;46.170;7.222;2023-03-18T04:01:15;95756.75;;;10.01;47.97
13581;BME280;6861;46.170;7.222;2023-03-18T04:03:44;95751.53;;;10.01;47.85
13581;BME280;6861;46.170;7.222;2023-03-18T04:06:12;95759.38;;;9.96;48.04
13581;BME280;6861;46.170;7.222;2023-03-18T04:08:40;95754.69;;;9.93;48.07
13581;BME280;6861;46.170;7.222;2023-03-18T04:11:09;95763.59;;;9.92;48.62
13581;BME280;6861;46.170;7.222;2023-03-18T04:13:38;95760.44;;;9.90;48.25
13581;BME280;6861;46.170;7.222;2023-03-18T04:16:06;95763.59;;;9.92;48.13
13581;BME280;6861;46.170;7.222;2023-03-18T04:18:35;95761.75;;;9.87;48.21
13581;BME280;6861;46.170;7.222;2023-03-18T04:21:03;95758.38;;;9.81;48.10
13581;BME280;6861;46.170;7.222;2023-03-18T04:23:31;95757.59;;;9.76;48.65
13581;BME280;6861;46.170;7.222;2023-03-18T04:25:59;95756.28;;;9.73;48.37
13581;BME280;6861;46.170;7.222;2023-03-18T04:28:29;95756.81;;;9.70;48.55
13581;BME280;6861;46.170;7.222;2023-03-18T04:30:57;95762.56;;;9.72;48.60
13581;BME280;6861;46.170;7.222;2023-03-18T04:33:26;95764.66;;;9.75;48.07
13581;BME280;6861;46.170;7.222;2023-03-18T04:35:54;95759.97;;;9.72;48.61
13581;BME280;6861;46.170;7.222;2023-03-18T04:38:23;95764.91;;;9.69;48.41
13581;BME280;6861;46.170;7.222;2023-03-18T04:40:53;95758.41;;;9.61;48.21
13581;BME280;6861;46.170;7.222;2023-03-18T04:43:22;95763.88;;;9.54;48.93
13581;BME280;6861;46.170;7.222;2023-03-18T04:45:51;95761.84;;;9.51;48.57
13581;BME280;6861;46.170;7.222;2023-03-18T04:48:19;95757.91;;;9.49;49.09
13581;BME280;6861;46.170;7.222;2023-03-18T04:50:47;95754.78;;;9.42;48.63
13581;BME280;6861;46.170;7.222;2023-03-18T04:53:15;95762.63;;;9.42;49.09
13581;BME280;6861;46.170;7.222;2023-03-18T04:55:43;95756.34;;;9.43;49.11
13581;BME280;6861;46.170;7.222;2023-03-18T04:58:11;95750.88;;;9.39;48.93
13581;BME280;6861;46.170;7.222;2023-03-18T05:00:39;95751.66;;;9.35;48.85
13581;BME280;6861;46.170;7.222;2023-03-18T05:03:10;95748.78;;;9.31;48.70
13581;BME280;6861;46.170;7.222;2023-03-18T05:05:38;95758.97;;;9.28;49.16
13581;BME280;6861;46.170;7.222;2023-03-18T05:08:06;95752.69;;;9.24;49.15
13581;BME280;6861;46.170;7.222;2023-03-18T05:10:34;95754.78;;;9.22;49.12
13581;BME280;6861;46.170;7.222;2023-03-18T05:13:02;95751.91;;;9.23;49.34
13581;BME280;6861;46.170;7.222;2023-03-18T05:15:31;95755.81;;;9.26;49.21
13581;BME280;6861;46.170;7.222;2023-03-18T05:17:59;95753.75;;;9.28;49.65
13581;BME280;6861;46.170;7.222;2023-03-18T05:20:29;95757.38;;;9.27;49.18
13581;BME280;6861;46.170;7.222;2023-03-18T05:22:57;95757.38;;;9.27;49.27
13581;BME280;6861;46.170;7.222;2023-03-18T05:25:25;95756.59;;;9.26;48.91
13581;BME280;6861;46.170;7.222;2023-03-18T05:27:53;95754.53;;;9.23;49.06
13581;BME280;6861;46.170;7.222;2023-03-18T05:30:23;95763.13;;;9.18;48.89
13581;BME280;6861;46.170;7.222;2023-03-18T05:32:51;95756.59;;;9.16;49.39
13581;BME280;6861;46.170;7.222;2023-03-18T05:35:19;95763.66;;;9.10;49.17
13581;BME280;6861;46.170;7.222;2023-03-18T05:37:49;95764.16;;;9.07;49.99
13581;BME280;6861;46.170;7.222;2023-03-18T05:40:17;95758.94;;;9.02;49.34
13581;BME280;6861;46.170;7.222;2023-03-18T05:42:45;95762.06;;;9.04;49.40
13581;BME280;6861;46.170;7.222;2023-03-18T05:45:22;95769.91;;;9.04;49.88
13581;BME280;6861;46.170;7.222;2023-03-18T05:47:50;95767.03;;;9.01;49.73
13581;BME280;6861;46.170;7.222;2023-03-18T05:50:27;95775.63;;;9.01;50.42
13581;BME280;6861;46.170;7.222;2023-03-18T05:52:57;95775.63;;;9.01;49.87
13581;BME280;6861;46.170;7.222;2023-03-18T05:55:26;95773.56;;;9.03;49.80
13581;BME280;6861;46.170;7.222;2023-03-18T05:57:55;95774.59;;;9.07;49.52
13581;BME280;6861;46.170;7.222;2023-03-18T06:00:25;95774.88;;;9.11;49.86
13581;BME280;6861;46.170;7.222;2023-03-18T06:02:54;95776.69;;;9.15;49.84
13581;BME280;6861;46.170;7.222;2023-03-18T06:05:23;95769.41;;;9.17;49.71
13581;BME280;6861;46.170;7.222;2023-03-18T06:07:51;95776.44;;;9.17;49.37
13581;BME280;6861;46.170;7.222;2023-03-18T06:10:23;95784.78;;;9.04;50.18
13581;BME280;6861;46.170;7.222;2023-03-18T06:12:52;95776.91;;;8.88;50.20
13581;BME280;6861;46.170;7.222;2023-03-18T06:15:21;95778.72;;;8.83;49.91
13581;BME280;6861;46.170;7.222;2023-03-18T06:17:50;95782.09;;;8.78;50.67
13581;BME280;6861;46.170;7.222;2023-03-18T06:20:18;95776.09;;;8.73;50.20
13581;BME280;6861;46.170;7.222;2023-03-18T06:22:47;95772.97;;;8.66;51.19
13581;BME280;6861;46.170;7.222;2023-03-18T06:25:17;95771.38;;;8.60;51.48
13581;BME280;6861;46.170;7.222;2023-03-18T06:27:47;95771.66;;;8.58;50.90
13581;BME280;6861;46.170;7.222;2023-03-18T06:30:16;95777.66;;;8.59;51.53
13581;BME280;6861;46.170;7.222;2023-03-18T06:32:44;95778.16;;;8.56;50.87
13581;BME280;6861;46.170;7.222;2023-03-18T06:35:13;95778.13;;;8.50;51.54
13581;BME280;6861;46.170;7.222;2023-03-18T06:37:42;95778.13;;;8.45;51.08
13581;BME280;6861;46.170;7.222;2023-03-18T06:40:10;95778.63;;;8.42;52.51
13581;BME280;6861;46.170;7.222;2023-03-18T06:42:39;95773.41;;;8.37;51.47
13581;BME280;6861;46.170;7.222;2023-03-18T06:45:10;95771.28;;;8.34;51.75
13581;BME280;6861;46.170;7.222;2023-03-18T06:47:38;95770.78;;;8.37;52.38
13581;BME280;6861;46.170;7.222;2023-03-18T06:50:07;95777.56;;;8.38;51.99
13581;BME280;6861;46.170;7.222;2023-03-18T06:52:36;95781.75;;;8.44;52.22
13581;BME280;6861;46.170;7.222;2023-03-18T06:55:05;95784.38;;;8.44;52.09
13581;BME280;6861;46.170;7.222;2023-03-18T06:57:33;95795.31;;;8.46;51.79
13581;BME280;6861;46.170;7.222;2023-03-18T07:00:01;95789.06;;;8.47;52.50
13581;BME280;6861;46.170;7.222;2023-03-18T07:02:31;95787.03;;;8.54;51.79
13581;BME280;6861;46.170;7.222;2023-03-18T07:04:59;95787.84;;;8.65;51.15
13581;BME280;6861;46.170;7.222;2023-03-18T07:07:27;95783.41;;;8.76;51.16
13581;BME280;6861;46.170;7.222;2023-03-18T07:09:55;95786.06;;;8.91;51.30
13581;BME280;6861;46.170;7.222;2023-03-18T07:12:24;95793.41;;;9.09;50.72
13581;BME280;6861;46.170;7.222;2023-03-18T07:14:54;95801.25;;;9.30;49.81
13581;BME280;6861;46.170;7.222;2023-03-18T07:17:22;95805.97;;;9.48;50.18
13581;BME280;6861;46.170;7.222;2023-03-18T07:19:51;95799.16;;;9.67;49.17
13581;BME280;6861;46.170;7.222;2023-03-18T07:22:19;95796.00;;;9.85;49.25
13581;BME280;6861;46.170;7.222;2023-03-18T07:24:47;95794.66;;;9.98;49.35
13581;BME280;6861;46.170;7.222;2023-03-18T07:27:17;95786.03;;;10.03;48.95
13581;BME280;6861;46.170;7.222;2023-03-18T07:29:45;95782.38;;;10.04;48.90
13581;BME280;6861;46.170;7.222;2023-03-18T07:32:13;95783.97;;;9.95;48.99
13581;BME280;6861;46.170;7.222;2023-03-18T07:34:41;95780.56;;;9.89;49.30
13581;BME280;6861;46.170;7.222;2023-03-18T07:37:11;95775.38;;;9.79;49.20
13581;BME280;6861;46.170;7.222;2023-03-18T07:39:39;95780.34;;;9.75;49.03
13581;BME280;6861;46.170;7.222;2023-03-18T07:42:09;95787.13;;;9.76;49.25
13581;BME280;6861;46.170;7.222;2023-03-18T07:44:37;95771.97;;;9.78;49.18
13581;BME280;6861;46.170;7.222;2023-03-18T07:47:06;95785.22;;;10.12;49.09
13581;BME280;6861;46.170;7.222;2023-03-18T07:49:34;95780.19;;;11.98;47.46
13581;BME280;6861;46.170;7.222;2023-03-18T07:52:02;95780.31;;;14.27;43.67
13581;BME280;6861;46.170;7.222;2023-03-18T07:54:31;95766.41;;;16.32;40.88
13581;BME280;6861;46.170;7.222;2023-03-18T07:56:59;95770.16;;;18.42;37.81
13581;BME280;6861;46.170;7.222;2023-03-18T07:59:29;95769.81;;;20.22;35.27
13581;BME280;6861;46.170;7.222;2023-03-18T08:01:57;95769.09;;;21.63;33.51
13581;BME280;6861;46.170;7.222;2023-03-18T08:04:25;95769.78;;;23.02;31.95
13581;BME280;6861;46.170;7.222;2023-03-18T08:06:54;95769.13;;;24.28;29.98
13581;BME280;6861;46.170;7.222;2023-03-18T08:09:23;95760.09;;;24.85;28.87
13581;BME280;6861;46.170;7.222;2023-03-18T08:11:54;95761.94;;;25.71;27.49
13581;BME280;6861;46.170;7.222;2023-03-18T08:14:22;95763.56;;;25.79;26.94
13581;BME280;6861;46.170;7.222;2023-03-18T08:16:51;95757.25;;;26.42;26.21
13581;BME280;6861;46.170;7.222;2023-03-18T08:19:19;95757.22;;;27.77;24.68
13581;BME280;6861;46.170;7.222;2023-03-18T08:21:47;95757.25;;;29.08;24.05
13581;BME280;6861;46.170;7.222;2023-03-18T08:24:15;95747.50;;;30.16;22.61
13581;BME280;6861;46.170;7.222;2023-03-18T08:26:44;95749.31;;;31.19;21.59
13581;BME280;6861;46.170;7.222;2023-03-18T08:29:14;95738.44;;;32.10;20.20
13581;BME280;6861;46.170;7.222;2023-03-18T08:31:42;95732.38;;;32.96;19.28
13581;BME280;6861;46.170;7.222;2023-03-18T08:34:10;95733.88;;;33.76;18.86
13581;BME280;6861;46.170;7.222;2023-03-18T08:36:40;95737.50;;;34.06;17.40
13581;BME280;6861;46.170;7.222;2023-03-18T08:39:08;95734.63;;;34.13;17.05
13581;BME280;6861;46.170;7.222;2023-03-18T08:41:37;95734.78;;;34.06;16.59
13581;BME280;6861;46.170;7.222;2023-03-18T08:44:05;95731.97;;;33.93;16.58
13581;BME280;6861;46.170;7.222;2023-03-18T08:46:37;95729.84;;;34.01;16.38
13581;BME280;6861;46.170;7.222;2023-03-18T08:49:06;95729.28;;;34.09;16.03
13581;BME280;6861;46.170;7.222;2023-03-18T08:51:35;95718.84;;;34.08;15.44
13581;BME280;6861;46.170;7.222;2023-03-18T08:54:04;95721.56;;;34.40;15.32
13581;BME280;6861;46.170;7.222;2023-03-18T08:56:34;95715.41;;;34.85;14.87
13581;BME280;6861;46.170;7.222;2023-03-18T08:59:02;95713.63;;;35.36;14.66
13581;BME280;6861;46.170;7.222;2023-03-18T09:01:30;95716.19;;;35.82;14.21
13581;BME280;6861;46.170;7.222;2023-03-18T09:04:00;95714.44;;;36.13;13.78
13581;BME280;6861;46.170;7.222;2023-03-18T09:06:28;95714.47;;;36.48;13.71
13581;BME280;6861;46.170;7.222;2023-03-18T09:08:56;95705.72;;;36.65;13.51
13581;BME280;6861;46.170;7.222;2023-03-18T09:11:24;95701.09;;;37.09;13.28
13581;BME280;6861;46.170;7.222;2023-03-18T09:13:53;95690.25;;;37.71;13.04
13581;BME280;6861;46.170;7.222;2023-03-18T09:16:23;95687.59;;;37.99;12.81
13581;BME280;6861;46.170;7.222;2023-03-18T09:18:51;95694.16;;;38.11;12.67
13581;BME280;6861;46.170;7.222;2023-03-18T09:21:21;95691.69;;;37.94;12.28
13581;BME280;6861;46.170;7.222;2023-03-18T09:23:49;95686.97;;;37.95;12.08
13581;BME280;6861;46.170;7.222;2023-03-18T09:26:18;95682.84;;;38.40;12.00
13581;BME280;6861;46.170;7.222;2023-03-18T09:28:46;95677.88;;;38.84;11.67
13581;BME280;6861;46.170;7.222;2023-03-18T09:31:14;95679.09;;;38.92;11.50
13581;BME280;6861;46.170;7.222;2023-03-18T09:33:43;95673.75;;;38.88;11.72
13581;BME280;6861;46.170;7.222;2023-03-18T09:36:11;95678.59;;;39.21;11.74
13581;BME280;6861;46.170;7.222;2023-03-18T09:38:40;95674.63;;;39.22;11.54
13581;BME280;6861;46.170;7.222;2023-03-18T09:41:19;95679.66;;;39.14;11.55
13581;BME280;6861;46.170;7.222;2023-03-18T09:43:56;95668.97;;;39.34;11.42
13581;BME280;6861;46.170;7.222;2023-03-18T09:46:33;95673.66;;;39.43;11.23
13581;BME280;6861;46.170;7.222;2023-03-18T09:49:22;95662.84;;;39.91;10.88
13581;BME280;6861;46.170;7.222;2023-03-18T09:52:03;95657.25;;;40.96;10.40
13581;BME280;6861;46.170;7.222;2023-03-18T09:54:39;95656.47;;;41.69;9.82
13581;BME280;6861;46.170;7.222;2023-03-18T09:57:14;95648.41;;;41.80;9.74
13581;BME280;6861;46.170;7.222;2023-03-18T09:59:48;95641.31;;;42.29;9.71
13581;BME280;6861;46.170;7.222;2023-03-18T10:02:22;95627.88;;;43.03;9.42
13581;BME280;6861;46.170;7.222;2023-03-18T10:04:55;95621.25;;;43.84;8.86
13581;BME280;6861;46.170;7.222;2023-03-18T10:07:28;95627.88;;;44.62;8.38
13581;BME280;6861;46.170;7.222;2023-03-18T10:10:05;95615.91;;;44.82;8.17
13581;BME280;6861;46.170;7.222;2023-03-18T10:12:38;95619.41;;;45.16;8.16
13581;BME280;6861;46.170;7.222;2023-03-18T10:15:13;95611.91;;;45.00;7.94
13581;BME280;6861;46.170;7.222;2023-03-18T10:17:45;95614.34;;;44.70;8.17
13581;BME280;6861;46.170;7.222;2023-03-18T10:20:24;95610.41;;;44.23;8.12
13581;BME280;6861;46.170;7.222;2023-03-18T10:23:03;95613.03;;;43.58;8.03
13581;BME280;6861;46.170;7.222;2023-03-18T10:25:37;95603.44;;;42.84;8.49
13581;BME280;6861;46.170;7.222;2023-03-18T10:28:23;95597.78;;;42.47;8.58
13581;BME280;6861;46.170;7.222;2023-03-18T10:31:02;95605.94;;;41.81;9.17
13581;BME280;6861;46.170;7.222;2023-03-18T10:33:38;95594.47;;;41.33;9.38
13581;BME280;6861;46.170;7.222;2023-03-18T10:36:11;95596.31;;;42.52;8.86
13581;BME280;6861;46.170;7.222;2023-03-18T10:38:46;95587.09;;;44.18;8.27
13581;BME280;6861;46.170;7.222;2023-03-18T10:41:20;95587.16;;;46.02;7.76
13581;BME280;6861;46.170;7.222;2023-03-18T10:43:53;95585.03;;;47.43;7.09
13581;BME280;6861;46.170;7.222;2023-03-18T10:46:23;95572.06;;;48.24;6.81
13581;BME280;6861;46.170;7.222;2023-03-18T10:48:55;95577.34;;;49.43;6.52
13581;BME280;6861;46.170;7.222;2023-03-18T10:51:29;95569.69;;;49.88;5.87
13581;BME280;6861;46.170;7.222;2023-03-18T10:54:02;95570.81;;;48.95;5.96
13581;BME280;6861;46.170;7.222;2023-03-18T10:56:35;95565.22;;;48.63;6.29
13581;BME280;6861;46.170;7.222;2023-03-18T10:59:10;95563.50;;;48.41;6.26
13581;BME280;6861;46.170;7.222;2023-03-18T11:01:40;95562.44;;;48.63;6.21
13581;BME280;6861;46.170;7.222;2023-03-18T11:04:12;95559.09;;;49.61;6.05
13581;BME280;6861;46.170;7.222;2023-03-18T11:06:44;95560.69;;;49.82;5.97
13581;BME280;6861;46.170;7.222;2023-03-18T11:09:16;95556.00;;;48.55;6.54
13581;BME280;6861;46.170;7.222;2023-03-18T11:11:47;95555.88;;;47.85;6.75
13581;BME280;6861;46.170;7.222;2023-03-18T11:14:18;95553.34;;;47.63;6.80
13581;BME280;6861;46.170;7.222;2023-03-18T11:16:49;95550.09;;;46.75;7.11
13581;BME280;6861;46.170;7.222;2023-03-18T11:19:27;95543.31;;;44.76;7.87
13581;BME280;6861;46.170;7.222;2023-03-18T11:22:18;95543.69;;;41.78;9.11
13581;BME280;6861;46.170;7.222;2023-03-18T11:25:00;95541.31;;;39.94;9.64
13581;BME280;6861;46.170;7.222;2023-03-18T11:27:37;95547.31;;;38.75;10.58
13581;BME280;6861;46.170;7.222;2023-03-18T11:30:15;95541.84;;;36.94;11.42
13581;BME280;6861;46.170;7.222;2023-03-18T11:33:03;95539.06;;;34.13;12.87
13581;BME280;6861;46.170;7.222;2023-03-18T11:35:35;95544.91;;;31.99;14.39
13581;BME280;6861;46.170;7.222;2023-03-18T11:38:13;95536.25;;;30.12;15.35
13581;BME280;6861;46.170;7.222;2023-03-18T11:40:42;95539.53;;;28.71;16.72
13581;BME280;6861;46.170;7.222;2023-03-18T11:43:17;95539.06;;;27.64;18.22
13581;BME280;6861;46.170;7.222;2023-03-18T11:45:50;95533.16;;;26.91;18.60
13581;BME280;6861;46.170;7.222;2023-03-18T11:48:27;95524.88;;;26.30;19.02
13581;BME280;6861;46.170;7.222;2023-03-18T11:51:04;95526.19;;;25.85;19.06
13581;BME280;6861;46.170;7.222;2023-03-18T11:53:45;95516.56;;;25.29;19.52
13581;BME280;6861;46.170;7.222;2023-03-18T11:56:22;95517.25;;;24.82;19.96
13581;BME280;6861;46.170;7.222;2023-03-18T11:59:04;95514.78;;;24.33;20.36
13581;BME280;6861;46.170;7.222;2023-03-18T12:01:42;95521.09;;;23.91;21.31
13581;BME280;6861;46.170;7.222;2023-03-18T12:04:28;95518.84;;;23.67;21.52
13581;BME280;6861;46.170;7.222;2023-03-18T12:07:13;95501.63;;;23.41;21.76
13581;BME280;6861;46.170;7.222;2023-03-18T12:09:52;95499.59;;;23.31;21.73
13581;BME280;6861;46.170;7.222;2023-03-18T12:12:42;95497.53;;;23.21;22.22
13581;BME280;6861;46.170;7.222;2023-03-18T12:15:24;95496.88;;;23.05;22.64
13581;BME280;6861;46.170;7.222;2023-03-18T12:17:59;95495.91;;;22.94;22.43
13581;BME280;6861;46.170;7.222;2023-03-18T12:20:47;95484.69;;;22.84;23.17
13581;BME280;6861;46.170;7.222;2023-03-18T12:23:34;95495.56;;;22.76;23.17
13581;BME280;6861;46.170;7.222;2023-03-18T12:26:05;95483.69;;;22.73;23.26
13581;BME280;6861;46.170;7.222;2023-03-18T12:31:57;95475.63;;;22.70;23.10
13581;BME280;6861;46.170;7.222;2023-03-18T12:34:47;95470.38;;;22.73;23.43
13581;BME280;6861;46.170;7.222;2023-03-18T12:37:27;95474.63;;;22.78;23.18
13581;BME280;6861;46.170;7.222;2023-03-18T12:40:12;95467.00;;;22.76;23.07
13581;BME280;6861;46.170;7.222;2023-03-18T12:42:54;95472.19;;;22.88;23.07
13581;BME280;6861;46.170;7.222;2023-03-18T12:45:29;95460.75;;;23.11;23.19
13581;BME280;6861;46.170;7.222;2023-03-18T12:48:06;95470.16;;;23.28;23.50
13581;BME280;6861;46.170;7.222;2023-03-18T12:50:38;95469.81;;;23.29;23.37
13581;BME280;6861;46.170;7.222;2023-03-18T12:53:12;95459.72;;;23.19;23.80
13581;BME280;6861;46.170;7.222;2023-03-18T12:55:45;95443.78;;;23.00;24.39
13581;BME280;6861;46.170;7.222;2023-03-18T12:58:17;95446.22;;;22.85;24.26
13581;BME280;6861;46.170;7.222;2023-03-18T13:00:52;95448.66;;;22.75;24.28
13581;BME280;6861;46.170;7.222;2023-03-18T13:03:29;95438.66;;;22.68;24.93
13581;BME280;6861;46.170;7.222;2023-03-18T13:06:01;95439.34;;;22.65;24.79
13581;BME280;6861;46.170;7.222;2023-03-18T13:08:53;95437.28;;;22.55;24.89
13581;BME280;6861;46.170;7.222;2023-03-18T13:11:31;95433.38;;;22.49;25.06
13581;BME280;6861;46.170;7.222;2023-03-18T13:14:10;95427.00;;;22.34;25.12
13581;BME280;6861;46.170;7.222;2023-03-18T13:16:40;95425.97;;;22.19;25.56
13581;BME280;6861;46.170;7.222;2023-03-18T13:19:10;95423.38;;;22.04;25.28
13581;BME280;6861;46.170;7.222;2023-03-18T13:21:41;95419.13;;;21.83;25.57
13581;BME280;6861;46.170;7.222;2023-03-18T13:24:38;95416.53;;;21.68;25.72
13581;BME280;6861;46.170;7.222;2023-03-18T13:27:31;95418.47;;;21.51;26.45
13581;BME280;6861;46.170;7.222;2023-03-18T13:30:08;95418.25;;;21.41;26.73
13581;BME280;6861;46.170;7.222;2023-03-18T13:33:02;95422.22;;;21.31;26.78
13581;BME280;6861;46.170;7.222;2023-03-18T13:36:05;95420.94;;;21.25;26.90
13581;BME280;6861;46.170;7.222;2023-03-18T13:41:53;95407.28;;;21.11;27.33
13581;BME280;6861;46.170;7.222;2023-03-18T13:44:35;95412.84;;;21.06;27.57